sensor_id;sensor_type;location;lat;lon;timestamp;temperature;humidity
19359;DHT22;9815;52.334;20.890;2023-02-01T00:00:39;3.20;99.90
19359;DHT22;9815;52.334;20.890;2023-02-01T00:03:08;3.30;99.90
19359;DHT22;9815;52.334;20.890;2023-02-01T00:05:36;3.30;99.90
19359;DHT22;9815;52.334;20.890;2023-02-01T00:08:04;3.30;99.90
19359;DHT22;9815;52.334;20.890;2023-02-01T00:10:34;3.30;99.90
19359;DHT22;9815;52.334;20.890;2023-02-01T00:13:01;3.40;99.90
19359;DHT22;9815;52.334;20.890;2023-02-01T00:15:29;3.40;99.90
19359;DHT22;9815;52.334;20.890;2023-02-01T00:18:00;3.40;99.90
19359;DHT22;9815;52.334;20.890;2023-02-01T00:20:28;3.40;99.90
19359;DHT22;9815;52.334;20.890;2023-02-01T00:22:56;3.40;99.90
19359;DHT22;9815;52.334;20.890;2023-02-01T00:25:24;3.40;99.90
19359;DHT22;9815;52.334;20.890;2023-02-01T00:27:53;3.40;99.90
19359;DHT22;9815;52.334;20.890;2023-02-01T00:30:23;3.40;99.90
19359;DHT22;9815;52.334;20.890;2023-02-01T00:32:51;3.40;99.90
19359;DHT22;9815;52.334;20.890;2023-02-01T00:35:19;3.40;99.90
19359;DHT22;9815;52.334;20.890;2023-02-01T00:37:47;3.30;99.90
19359;DHT22;9815;52.334;20.890;2023-02-01T00:40:15;3.40;99.90
19359;DHT22;9815;52.334;20.890;2023-02-01T00:42:43;3.40;99.90
19359;DHT22;9815;52.334;20.890;2023-02-01T00:45:12;3.40;99.90
19359;DHT22;9815;52.334;20.890;2023-02-01T00:47:40;3.40;99.90
19359;DHT22;9815;52.334;20.890;2023-02-01T00:50:09;3.40;99.90
19359;DHT22;9815;52.334;20.890;2023-02-01T00:52:37;3.40;99.90
19359;DHT22;9815;52.334;20.890;2023-02-01T00:55:06;3.40;99.90
19359;DHT22;9815;52.334;20.890;2023-02-01T00:57:34;3.40;99.90
19359;DHT22;9815;52.334;20.890;2023-02-01T01:00:02;3.30;99.90
19359;DHT22;9815;52.334;20.890;2023-02-01T01:02:32;3.30;99.90
19359;DHT22;9815;52.334;20.890;2023-02-01T01:05:00;3.30;99.90
19359;DHT22;9815;52.334;20.890;2023-02-01T01:07:28;3.20;99.90
19359;DHT22;9815;52.334;20.890;2023-02-01T01:09:56;3.10;99.90
19359;DHT22;9815;52.334;20.890;2023-02-01T01:12:24;3.10;99.90
19359;DHT22;9815;52.334;20.890;2023-02-01T01:14:52;3.10;99.90
19359;DHT22;9815;52.334;20.890;2023-02-01T01:17:20;3.10;99.90
19359;DHT22;9815;52.334;20.890;2023-02-01T01:19:50;3.00;99.90
19359;DHT22;9815;52.334;20.890;2023-02-01T01:22:18;3.00;99.90
19359;DHT22;9815;52.334;20.890;2023-02-01T01:24:46;2.90;99.90
19359;DHT22;9815;52.334;20.890;2023-02-01T01:27:14;2.90;99.90
19359;DHT22;9815;52.334;20.890;2023-02-01T01:29:49;3.00;99.90
19359;DHT22;9815;52.334;20.890;2023-02-01T01:32:17;3.00;99.90
19359;DHT22;9815;52.334;20.890;2023-02-01T01:34:45;2.90;99.90
19359;DHT22;9815;52.334;20.890;2023-02-01T01:37:14;3.00;99.90
19359;DHT22;9815;52.334;20.890;2023-02-01T01:39:42;2.90;99.90
19359;DHT22;9815;52.334;20.890;2023-02-01T01:42:11;2.80;99.90
19359;DHT22;9815;52.334;20.890;2023-02-01T01:44:58;2.90;99.90
19359;DHT22;9815;52.334;20.890;2023-02-01T01:47:31;2.80;99.90
19359;DHT22;9815;52.334;20.890;2023-02-01T01:50:01;2.90;99.90
19359;DHT22;9815;52.334;20.890;2023-02-01T01:52:31;2.80;99.90
19359;DHT22;9815;52.334;20.890;2023-02-01T01:55:01;2.90;99.90
19359;DHT22;9815;52.334;20.890;2023-02-01T01:57:32;2.90;99.90
19359;DHT22;9815;52.334;20.890;2023-02-01T02:00:05;2.90;99.90
19359;DHT22;9815;52.334;20.890;2023-02-01T02:02:41;2.90;99.90
19359;DHT22;9815;52.334;20.890;2023-02-01T02:05:10;2.90;99.90
19359;DHT22;9815;52.334;20.890;2023-02-01T02:07:45;3.00;99.90
19359;DHT22;9815;52.334;20.890;2023-02-01T02:10:14;2.90;99.90
19359;DHT22;9815;52.334;20.890;2023-02-01T02:12:46;2.90;99.90
19359;DHT22;9815;52.334;20.890;2023-02-01T02:15:16;2.90;99.90
19359;DHT22;9815;52.334;20.890;2023-02-01T02:17:50;2.90;99.90
19359;DHT22;9815;52.334;20.890;2023-02-01T02:20:45;2.90;99.90
19359;DHT22;9815;52.334;20.890;2023-02-01T02:23:38;2.90;99.90
19359;DHT22;9815;52.334;20.890;2023-02-01T02:26:31;3.00;99.90
19359;DHT22;9815;52.334;20.890;2023-02-01T02:29:38;2.90;99.90
19359;DHT22;9815;52.334;20.890;2023-02-01T02:35:23;3.00;99.90
19359;DHT22;9815;52.334;20.890;2023-02-01T02:38:02;3.00;99.90
19359;DHT22;9815;52.334;20.890;2023-02-01T02:40:38;3.00;99.90
19359;DHT22;9815;52.334;20.890;2023-02-01T02:43:12;3.00;99.90
19359;DHT22;9815;52.334;20.890;2023-02-01T02:46:04;2.90;99.90
19359;DHT22;9815;52.334;20.890;2023-02-01T02:48:57;3.00;99.90
19359;DHT22;9815;52.334;20.890;2023-02-01T02:51:34;3.00;99.90
19359;DHT22;9815;52.334;20.890;2023-02-01T02:54:24;3.00;99.90
19359;DHT22;9815;52.334;20.890;2023-02-01T02:57:14;3.00;99.90
19359;DHT22;9815;52.334;20.890;2023-02-01T03:00:04;3.00;99.90
19359;DHT22;9815;52.334;20.890;2023-02-01T03:02:52;3.00;99.90
19359;DHT22;9815;52.334;20.890;2023-02-01T03:05:42;3.00;99.90
19359;DHT22;9815;52.334;20.890;2023-02-01T03:08:14;3.00;99.90
19359;DHT22;9815;52.334;20.890;2023-02-01T03:10:54;3.00;99.90
19359;DHT22;9815;52.334;20.890;2023-02-01T03:13:34;3.00;99.90
19359;DHT22;9815;52.334;20.890;2023-02-01T03:16:07;3.00;99.90
19359;DHT22;9815;52.334;20.890;2023-02-01T03:18:45;3.00;99.90
19359;DHT22;9815;52.334;20.890;2023-02-01T03:21:20;2.90;99.90
19359;DHT22;9815;52.334;20.890;2023-02-01T03:23:51;2.90;99.90
19359;DHT22;9815;52.334;20.890;2023-02-01T03:26:21;2.80;99.90
19359;DHT22;9815;52.334;20.890;2023-02-01T03:28:56;2.80;99.90
19359;DHT22;9815;52.334;20.890;2023-02-01T03:31:25;2.80;99.90
19359;DHT22;9815;52.334;20.890;2023-02-01T03:33:55;2.80;99.90
19359;DHT22;9815;52.334;20.890;2023-02-01T03:36:28;2.80;99.90
19359;DHT22;9815;52.334;20.890;2023-02-01T03:39:03;2.70;99.90
19359;DHT22;9815;52.334;20.890;2023-02-01T03:41:36;2.70;99.90
19359;DHT22;9815;52.334;20.890;2023-02-01T03:44:11;2.60;99.90
19359;DHT22;9815;52.334;20.890;2023-02-01T03:46:45;2.60;99.90
19359;DHT22;9815;52.334;20.890;2023-02-01T03:49:19;2.60;99.90
19359;DHT22;9815;52.334;20.890;2023-02-01T03:51:50;2.60;99.90
19359;DHT22;9815;52.334;20.890;2023-02-01T03:54:20;2.60;99.90
19359;DHT22;9815;52.334;20.890;2023-02-01T03:56:50;2.50;99.90
19359;DHT22;9815;52.334;20.890;2023-02-01T03:59:19;2.50;99.90
19359;DHT22;9815;52.334;20.890;2023-02-01T04:01:47;2.50;99.90
19359;DHT22;9815;52.334;20.890;2023-02-01T04:04:16;2.50;99.90
19359;DHT22;9815;52.334;20.890;2023-02-01T04:06:51;2.50;99.90
19359;DHT22;9815;52.334;20.890;2023-02-01T04:09:21;2.50;99.90
19359;DHT22;9815;52.334;20.890;2023-02-01T04:11:49;2.60;99.90
19359;DHT22;9815;52.334;20.890;2023-02-01T04:14:17;2.60;99.90
19359;DHT22;9815;52.334;20.890;2023-02-01T04:16:45;2.60;99.90
19359;DHT22;9815;52.334;20.890;2023-02-01T04:19:13;2.70;99.90
19359;DHT22;9815;52.334;20.890;2023-02-01T04:21:41;2.60;99.90
19359;DHT22;9815;52.334;20.890;2023-02-01T04:24:09;2.70;99.90
19359;DHT22;9815;52.334;20.890;2023-02-01T04:26:39;2.70;99.90
19359;DHT22;9815;52.334;20.890;2023-02-01T04:29:08;2.70;99.90
19359;DHT22;9815;52.334;20.890;2023-02-01T04:31:36;2.80;99.90
19359;DHT22;9815;52.334;20.890;2023-02-01T04:34:04;2.80;99.90
19359;DHT22;9815;52.334;20.890;2023-02-01T04:36:32;2.80;99.90
19359;DHT22;9815;52.334;20.890;2023-02-01T04:39:00;2.80;99.90
19359;DHT22;9815;52.334;20.890;2023-02-01T04:41:28;2.80;99.90
19359;DHT22;9815;52.334;20.890;2023-02-01T04:43:58;2.90;99.90
19359;DHT22;9815;52.334;20.890;2023-02-01T04:46:26;2.90;99.90
19359;DHT22;9815;52.334;20.890;2023-02-01T04:48:54;2.90;99.90
19359;DHT22;9815;52.334;20.890;2023-02-01T04:51:22;2.90;99.90
19359;DHT22;9815;52.334;20.890;2023-02-01T04:53:50;2.90;99.90
19359;DHT22;9815;52.334;20.890;2023-02-01T04:56:18;3.00;99.90
19359;DHT22;9815;52.334;20.890;2023-02-01T04:58:46;3.00;99.90
19359;DHT22;9815;52.334;20.890;2023-02-01T05:01:15;3.00;99.90
19359;DHT22;9815;52.334;20.890;2023-02-01T05:03:43;3.10;99.90
19359;DHT22;9815;52.334;20.890;2023-02-01T05:06:11;3.00;99.90
19359;DHT22;9815;52.334;20.890;2023-02-01T05:08:39;3.10;99.90
19359;DHT22;9815;52.334;20.890;2023-02-01T05:11:07;3.00;99.90
19359;DHT22;9815;52.334;20.890;2023-02-01T05:13:55;3.00;99.90
19359;DHT22;9815;52.334;20.890;2023-02-01T05:16:23;3.00;99.90
19359;DHT22;9815;52.334;20.890;2023-02-01T05:18:52;3.10;99.90
19359;DHT22;9815;52.334;20.890;2023-02-01T05:21:20;3.00;99.90
19359;DHT22;9815;52.334;20.890;2023-02-01T05:23:48;3.10;99.90
19359;DHT22;9815;52.334;20.890;2023-02-01T05:26:34;3.10;99.90
19359;DHT22;9815;52.334;20.890;2023-02-01T05:29:02;3.10;99.90
19359;DHT22;9815;52.334;20.890;2023-02-01T05:31:32;3.00;99.90
19359;DHT22;9815;52.334;20.890;2023-02-01T05:34:00;3.00;99.90
19359;DHT22;9815;52.334;20.890;2023-02-01T05:36:28;3.00;99.90
19359;DHT22;9815;52.334;20.890;2023-02-01T05:38:56;3.00;99.90
19359;DHT22;9815;52.334;20.890;2023-02-01T05:41:24;3.00;99.90
19359;DHT22;9815;52.334;20.890;2023-02-01T05:43:52;3.00;99.90
19359;DHT22;9815;52.334;20.890;2023-02-01T05:46:20;3.00;99.90
19359;DHT22;9815;52.334;20.890;2023-02-01T05:48:49;3.00;99.90
19359;DHT22;9815;52.334;20.890;2023-02-01T05:51:17;3.00;99.90
19359;DHT22;9815;52.334;20.890;2023-02-01T05:53:45;3.10;99.90
19359;DHT22;9815;52.334;20.890;2023-02-01T05:56:13;3.10;99.90
19359;DHT22;9815;52.334;20.890;2023-02-01T05:58:41;3.10;99.90
19359;DHT22;9815;52.334;20.890;2023-02-01T06:01:09;3.10;99.90
19359;DHT22;9815;52.334;20.890;2023-02-01T06:03:37;3.10;99.90
19359;DHT22;9815;52.334;20.890;2023-02-01T06:06:07;3.20;99.90
19359;DHT22;9815;52.334;20.890;2023-02-01T06:08:35;3.20;99.90
19359;DHT22;9815;52.334;20.890;2023-02-01T06:11:04;3.10;99.90
19359;DHT22;9815;52.334;20.890;2023-02-01T06:13:33;3.10;99.90
19359;DHT22;9815;52.334;20.890;2023-02-01T06:16:01;3.10;99.90
19359;DHT22;9815;52.334;20.890;2023-02-01T06:18:30;3.20;99.90
19359;DHT22;9815;52.334;20.890;2023-02-01T06:20:59;3.20;99.90
19359;DHT22;9815;52.334;20.890;2023-02-01T06:23:29;3.20;99.90
19359;DHT22;9815;52.334;20.890;2023-02-01T06:26:00;3.20;99.90
19359;DHT22;9815;52.334;20.890;2023-02-01T06:28:29;3.20;99.90
19359;DHT22;9815;52.334;20.890;2023-02-01T06:30:58;3.20;99.90
19359;DHT22;9815;52.334;20.890;2023-02-01T06:33:31;3.20;99.90
19359;DHT22;9815;52.334;20.890;2023-02-01T06:36:01;3.20;99.90
19359;DHT22;9815;52.334;20.890;2023-02-01T06:38:32;3.30;99.90
19359;DHT22;9815;52.334;20.890;2023-02-01T06:41:01;3.20;99.90
19359;DHT22;9815;52.334;20.890;2023-02-01T06:43:31;3.20;99.90
19359;DHT22;9815;52.334;20.890;2023-02-01T06:46:00;3.20;99.90
19359;DHT22;9815;52.334;20.890;2023-02-01T06:48:29;3.20;99.90
19359;DHT22;9815;52.334;20.890;2023-02-01T06:50:57;3.20;99.90
19359;DHT22;9815;52.334;20.890;2023-02-01T06:53:25;3.30;99.90
19359;DHT22;9815;52.334;20.890;2023-02-01T06:55:56;3.30;99.90
19359;DHT22;9815;52.334;20.890;2023-02-01T06:58:28;3.30;99.90
19359;DHT22;9815;52.334;20.890;2023-02-01T07:00:56;3.30;99.90
19359;DHT22;9815;52.334;20.890;2023-02-01T07:03:24;3.30;99.90
19359;DHT22;9815;52.334;20.890;2023-02-01T07:05:55;3.40;99.90
19359;DHT22;9815;52.334;20.890;2023-02-01T07:08:23;3.40;99.90
19359;DHT22;9815;52.334;20.890;2023-02-01T07:10:51;3.40;99.90
19359;DHT22;9815;52.334;20.890;2023-02-01T07:13:21;3.40;99.90
19359;DHT22;9815;52.334;20.890;2023-02-01T07:15:49;3.40;99.90
19359;DHT22;9815;52.334;20.890;2023-02-01T07:18:17;3.30;99.90
19359;DHT22;9815;52.334;20.890;2023-02-01T07:20:49;3.30;99.90
19359;DHT22;9815;52.334;20.890;2023-02-01T07:23:17;3.30;99.90
19359;DHT22;9815;52.334;20.890;2023-02-01T07:25:45;3.40;99.90
19359;DHT22;9815;52.334;20.890;2023-02-01T07:28:14;3.40;99.90
19359;DHT22;9815;52.334;20.890;2023-02-01T07:30:43;3.40;99.90
19359;DHT22;9815;52.334;20.890;2023-02-01T07:33:18;3.40;99.90
19359;DHT22;9815;52.334;20.890;2023-02-01T07:35:47;3.40;99.90
19359;DHT22;9815;52.334;20.890;2023-02-01T07:38:15;3.40;99.90
19359;DHT22;9815;52.334;20.890;2023-02-01T07:40:43;3.40;99.90
19359;DHT22;9815;52.334;20.890;2023-02-01T07:43:11;3.40;99.90
19359;DHT22;9815;52.334;20.890;2023-02-01T07:45:39;3.30;99.90
19359;DHT22;9815;52.334;20.890;2023-02-01T07:48:09;3.20;99.90
19359;DHT22;9815;52.334;20.890;2023-02-01T07:50:36;3.20;99.90
19359;DHT22;9815;52.334;20.890;2023-02-01T07:53:04;3.20;99.90
19359;DHT22;9815;52.334;20.890;2023-02-01T07:55:32;3.20;99.90
19359;DHT22;9815;52.334;20.890;2023-02-01T07:58:01;3.20;99.90
19359;DHT22;9815;52.334;20.890;2023-02-01T08:00:29;3.20;99.90
19359;DHT22;9815;52.334;20.890;2023-02-01T08:03:16;3.20;99.90
19359;DHT22;9815;52.334;20.890;2023-02-01T08:05:44;3.10;99.90
19359;DHT22;9815;52.334;20.890;2023-02-01T08:08:12;3.20;99.90
19359;DHT22;9815;52.334;20.890;2023-02-01T08:10:40;3.20;99.90
19359;DHT22;9815;52.334;20.890;2023-02-01T08:13:08;3.30;99.90
19359;DHT22;9815;52.334;20.890;2023-02-01T08:15:36;3.30;99.90
19359;DHT22;9815;52.334;20.890;2023-02-01T08:18:04;3.40;99.90
19359;DHT22;9815;52.334;20.890;2023-02-01T08:20:34;3.40;99.90
19359;DHT22;9815;52.334;20.890;2023-02-01T08:23:02;3.40;99.90
19359;DHT22;9815;52.334;20.890;2023-02-01T08:25:30;3.50;99.90
19359;DHT22;9815;52.334;20.890;2023-02-01T08:27:58;3.50;99.90
19359;DHT22;9815;52.334;20.890;2023-02-01T08:30:26;3.50;99.90
19359;DHT22;9815;52.334;20.890;2023-02-01T08:32:55;3.50;99.90
19359;DHT22;9815;52.334;20.890;2023-02-01T08:35:23;3.60;99.90
19359;DHT22;9815;52.334;20.890;2023-02-01T08:38:09;3.60;99.90
19359;DHT22;9815;52.334;20.890;2023-02-01T08:40:37;3.70;99.90
19359;DHT22;9815;52.334;20.890;2023-02-01T08:43:08;3.80;99.90
19359;DHT22;9815;52.334;20.890;2023-02-01T08:45:36;3.80;99.90
19359;DHT22;9815;52.334;20.890;2023-02-01T08:48:04;3.70;99.90
19359;DHT22;9815;52.334;20.890;2023-02-01T08:50:33;3.70;99.90
19359;DHT22;9815;52.334;20.890;2023-02-01T08:53:01;3.70;99.90
19359;DHT22;9815;52.334;20.890;2023-02-01T08:55:30;3.70;99.90
19359;DHT22;9815;52.334;20.890;2023-02-01T08:57:58;3.70;99.90
19359;DHT22;9815;52.334;20.890;2023-02-01T09:00:26;3.80;99.90
19359;DHT22;9815;52.334;20.890;2023-02-01T09:02:55;3.80;99.90
19359;DHT22;9815;52.334;20.890;2023-02-01T09:05:24;3.80;99.90
19359;DHT22;9815;52.334;20.890;2023-02-01T09:08:00;3.80;99.90
19359;DHT22;9815;52.334;20.890;2023-02-01T09:10:30;3.80;99.90
19359;DHT22;9815;52.334;20.890;2023-02-01T09:13:01;3.80;99.90
19359;DHT22;9815;52.334;20.890;2023-02-01T09:15:29;3.80;99.90
19359;DHT22;9815;52.334;20.890;2023-02-01T09:17:58;3.90;99.90
19359;DHT22;9815;52.334;20.890;2023-02-01T09:20:26;4.00;99.90
19359;DHT22;9815;52.334;20.890;2023-02-01T09:22:55;4.10;99.90
19359;DHT22;9815;52.334;20.890;2023-02-01T09:25:23;4.20;99.90
19359;DHT22;9815;52.334;20.890;2023-02-01T09:27:52;4.30;99.90
19359;DHT22;9815;52.334;20.890;2023-02-01T09:30:20;4.30;99.90
19359;DHT22;9815;52.334;20.890;2023-02-01T09:32:49;4.40;99.90
19359;DHT22;9815;52.334;20.890;2023-02-01T09:35:17;4.40;99.90
19359;DHT22;9815;52.334;20.890;2023-02-01T09:37:45;4.40;99.90
19359;DHT22;9815;52.334;20.890;2023-02-01T09:40:14;4.60;99.90
19359;DHT22;9815;52.334;20.890;2023-02-01T09:42:52;4.80;99.90
19359;DHT22;9815;52.334;20.890;2023-02-01T09:45:28;4.90;99.90
19359;DHT22;9815;52.334;20.890;2023-02-01T09:48:02;5.10;99.90
19359;DHT22;9815;52.334;20.890;2023-02-01T09:50:34;5.10;99.90
19359;DHT22;9815;52.334;20.890;2023-02-01T09:53:06;5.00;99.90
19359;DHT22;9815;52.334;20.890;2023-02-01T09:55:40;5.00;99.90
19359;DHT22;9815;52.334;20.890;2023-02-01T09:58:16;5.10;99.90
19359;DHT22;9815;52.334;20.890;2023-02-01T10:00:51;5.10;99.90
19359;DHT22;9815;52.334;20.890;2023-02-01T10:03:19;5.00;99.90
19359;DHT22;9815;52.334;20.890;2023-02-01T10:08:54;5.00;99.90
19359;DHT22;9815;52.334;20.890;2023-02-01T10:11:31;4.90;99.90
19359;DHT22;9815;52.334;20.890;2023-02-01T10:14:40;4.80;99.90
19359;DHT22;9815;52.334;20.890;2023-02-01T10:17:18;4.80;99.90
19359;DHT22;9815;52.334;20.890;2023-02-01T10:19:54;4.80;99.90
19359;DHT22;9815;52.334;20.890;2023-02-01T10:22:34;4.80;99.90
19359;DHT22;9815;52.334;20.890;2023-02-01T10:25:30;4.80;99.90
19359;DHT22;9815;52.334;20.890;2023-02-01T10:28:01;4.80;99.90
19359;DHT22;9815;52.334;20.890;2023-02-01T10:30:34;4.80;99.90
19359;DHT22;9815;52.334;20.890;2023-02-01T10:33:15;4.80;99.90
19359;DHT22;9815;52.334;20.890;2023-02-01T10:35:45;4.90;99.90
19359;DHT22;9815;52.334;20.890;2023-02-01T10:38:19;5.00;99.90
19359;DHT22;9815;52.334;20.890;2023-02-01T10:40:49;5.00;99.90
19359;DHT22;9815;52.334;20.890;2023-02-01T10:43:18;5.00;99.90
19359;DHT22;9815;52.334;20.890;2023-02-01T10:45:47;5.00;99.90
19359;DHT22;9815;52.334;20.890;2023-02-01T10:48:15;5.10;99.90
19359;DHT22;9815;52.334;20.890;2023-02-01T10:50:48;5.20;99.90
19359;DHT22;9815;52.334;20.890;2023-02-01T10:53:21;5.20;99.90
19359;DHT22;9815;52.334;20.890;2023-02-01T10:55:52;5.30;99.90
19359;DHT22;9815;52.334;20.890;2023-02-01T10:58:26;5.40;99.90
19359;DHT22;9815;52.334;20.890;2023-02-01T11:00:58;5.50;99.90
19359;DHT22;9815;52.334;20.890;2023-02-01T11:03:36;5.50;99.90
19359;DHT22;9815;52.334;20.890;2023-02-01T11:06:21;5.40;99.90
19359;DHT22;9815;52.334;20.890;2023-02-01T11:08:52;5.20;99.90
19359;DHT22;9815;52.334;20.890;2023-02-01T11:11:21;5.30;99.90
19359;DHT22;9815;52.334;20.890;2023-02-01T11:13:55;5.10;99.90
19359;DHT22;9815;52.334;20.890;2023-02-01T11:16:32;5.10;99.90
19359;DHT22;9815;52.334;20.890;2023-02-01T11:19:01;5.10;99.90
19359;DHT22;9815;52.334;20.890;2023-02-01T11:21:29;5.10;99.90
19359;DHT22;9815;52.334;20.890;2023-02-01T11:24:01;5.10;99.90
19359;DHT22;9815;52.334;20.890;2023-02-01T11:26:31;5.10;99.90
19359;DHT22;9815;52.334;20.890;2023-02-01T11:29:03;5.00;99.90
19359;DHT22;9815;52.334;20.890;2023-02-01T11:31:33;5.10;99.90
19359;DHT22;9815;52.334;20.890;2023-02-01T11:34:07;5.00;99.90
19359;DHT22;9815;52.334;20.890;2023-02-01T11:36:37;4.90;99.90
19359;DHT22;9815;52.334;20.890;2023-02-01T11:39:19;5.00;99.90
19359;DHT22;9815;52.334;20.890;2023-02-01T11:41:58;5.00;99.90
19359;DHT22;9815;52.334;20.890;2023-02-01T11:44:32;5.00;99.90
19359;DHT22;9815;52.334;20.890;2023-02-01T11:47:24;5.20;99.90
19359;DHT22;9815;52.334;20.890;2023-02-01T11:49:53;5.30;99.90
19359;DHT22;9815;52.334;20.890;2023-02-01T11:52:35;5.40;99.90
19359;DHT22;9815;52.334;20.890;2023-02-01T11:58:24;5.50;99.90
19359;DHT22;9815;52.334;20.890;2023-02-01T12:01:07;5.50;99.90
19359;DHT22;9815;52.334;20.890;2023-02-01T12:06:35;5.30;99.90
19359;DHT22;9815;52.334;20.890;2023-02-01T12:09:19;5.20;99.90
19359;DHT22;9815;52.334;20.890;2023-02-01T12:11:57;5.00;99.90
19359;DHT22;9815;52.334;20.890;2023-02-01T12:14:54;4.90;99.90
19359;DHT22;9815;52.334;20.890;2023-02-01T12:17:42;4.80;99.90
19359;DHT22;9815;52.334;20.890;2023-02-01T12:20:24;4.80;99.90
19359;DHT22;9815;52.334;20.890;2023-02-01T12:23:12;4.80;99.90
19359;DHT22;9815;52.334;20.890;2023-02-01T12:25:57;4.90;99.90
19359;DHT22;9815;52.334;20.890;2023-02-01T12:31:43;4.80;99.90
19359;DHT22;9815;52.334;20.890;2023-02-01T12:34:52;4.80;99.90
19359;DHT22;9815;52.334;20.890;2023-02-01T12:37:38;4.90;99.90
19359;DHT22;9815;52.334;20.890;2023-02-01T12:40:20;4.90;99.90
19359;DHT22;9815;52.334;20.890;2023-02-01T12:42:57;5.00;99.90
19359;DHT22;9815;52.334;20.890;2023-02-01T12:45:31;5.10;99.90
19359;DHT22;9815;52.334;20.890;2023-02-01T12:48:08;5.10;99.90
19359;DHT22;9815;52.334;20.890;2023-02-01T12:50:43;5.10;99.90
19359;DHT22;9815;52.334;20.890;2023-02-01T12:53:17;5.10;99.90
19359;DHT22;9815;52.334;20.890;2023-02-01T12:55:50;5.10;99.90
19359;DHT22;9815;52.334;20.890;2023-02-01T12:58:24;5.10;99.90
19359;DHT22;9815;52.334;20.890;2023-02-01T13:00:59;5.30;99.90
19359;DHT22;9815;52.334;20.890;2023-02-01T13:03:35;5.40;99.90
19359;DHT22;9815;52.334;20.890;2023-02-01T13:06:27;5.50;99.90
19359;DHT22;9815;52.334;20.890;2023-02-01T13:09:04;5.70;99.90
19359;DHT22;9815;52.334;20.890;2023-02-01T13:11:38;5.70;99.90
19359;DHT22;9815;52.334;20.890;2023-02-01T13:14:13;5.70;99.90
19359;DHT22;9815;52.334;20.890;2023-02-01T13:16:48;5.70;99.90
19359;DHT22;9815;52.334;20.890;2023-02-01T13:19:20;5.70;99.90
19359;DHT22;9815;52.334;20.890;2023-02-01T13:21:53;5.70;99.90
19359;DHT22;9815;52.334;20.890;2023-02-01T13:24:38;5.70;99.90
19359;DHT22;9815;52.334;20.890;2023-02-01T13:27:11;5.60;99.90
19359;DHT22;9815;52.334;20.890;2023-02-01T13:29:46;5.50;99.90
19359;DHT22;9815;52.334;20.890;2023-02-01T13:32:33;5.40;99.90
19359;DHT22;9815;52.334;20.890;2023-02-01T13:35:46;5.40;99.90
19359;DHT22;9815;52.334;20.890;2023-02-01T13:38:43;5.40;99.90
19359;DHT22;9815;52.334;20.890;2023-02-01T13:41:24;5.30;99.90
19359;DHT22;9815;52.334;20.890;2023-02-01T13:43:57;5.30;99.90
19359;DHT22;9815;52.334;20.890;2023-02-01T13:46:26;5.20;99.90
19359;DHT22;9815;52.334;20.890;2023-02-01T13:48:57;5.20;99.90
19359;DHT22;9815;52.334;20.890;2023-02-01T13:51:36;5.10;99.90
19359;DHT22;9815;52.334;20.890;2023-02-01T13:54:05;5.10;99.90
19359;DHT22;9815;52.334;20.890;2023-02-01T13:56:42;5.10;99.90
19359;DHT22;9815;52.334;20.890;2023-02-01T13:59:37;5.00;99.90
19359;DHT22;9815;52.334;20.890;2023-02-01T14:02:46;5.00;99.90
19359;DHT22;9815;52.334;20.890;2023-02-01T14:05:57;5.00;99.90
19359;DHT22;9815;52.334;20.890;2023-02-01T14:08:38;5.00;99.90
19359;DHT22;9815;52.334;20.890;2023-02-01T14:11:33;4.90;99.90
19359;DHT22;9815;52.334;20.890;2023-02-01T14:17:35;4.90;99.90
19359;DHT22;9815;52.334;20.890;2023-02-01T14:23:28;4.80;99.90
19359;DHT22;9815;52.334;20.890;2023-02-01T14:26:18;4.80;99.90
19359;DHT22;9815;52.334;20.890;2023-02-01T14:29:00;4.80;99.90
19359;DHT22;9815;52.334;20.890;2023-02-01T14:31:46;4.80;99.90
19359;DHT22;9815;52.334;20.890;2023-02-01T14:34:29;4.80;99.90
19359;DHT22;9815;52.334;20.890;2023-02-01T14:36:59;4.80;99.90
19359;DHT22;9815;52.334;20.890;2023-02-01T14:39:32;4.80;99.90
19359;DHT22;9815;52.334;20.890;2023-02-01T14:42:04;4.80;99.90
19359;DHT22;9815;52.334;20.890;2023-02-01T14:44:35;4.80;99.90
19359;DHT22;9815;52.334;20.890;2023-02-01T14:47:09;4.80;99.90
19359;DHT22;9815;52.334;20.890;2023-02-01T14:49:47;4.90;99.90
19359;DHT22;9815;52.334;20.890;2023-02-01T14:52:19;4.90;99.90
19359;DHT22;9815;52.334;20.890;2023-02-01T14:54:51;4.90;99.90
19359;DHT22;9815;52.334;20.890;2023-02-01T14:57:25;4.90;99.90
19359;DHT22;9815;52.334;20.890;2023-02-01T15:00:00;4.90;99.90
19359;DHT22;9815;52.334;20.890;2023-02-01T15:02:35;4.80;99.90
19359;DHT22;9815;52.334;20.890;2023-02-01T15:05:30;4.90;99.90
19359;DHT22;9815;52.334;20.890;2023-02-01T15:08:04;4.90;99.90
19359;DHT22;9815;52.334;20.890;2023-02-01T15:10:41;4.80;99.90
19359;DHT22;9815;52.334;20.890;2023-02-01T15:13:19;4.70;99.90
19359;DHT22;9815;52.334;20.890;2023-02-01T15:16:02;4.70;99.90
19359;DHT22;9815;52.334;20.890;2023-02-01T15:18:30;4.70;99.90
19359;DHT22;9815;52.334;20.890;2023-02-01T15:21:01;4.70;99.90
19359;DHT22;9815;52.334;20.890;2023-02-01T15:23:49;4.70;99.90
19359;DHT22;9815;52.334;20.890;2023-02-01T15:26:28;4.70;99.90
19359;DHT22;9815;52.334;20.890;2023-02-01T15:28:57;4.70;99.90
19359;DHT22;9815;52.334;20.890;2023-02-01T15:31:33;4.70;99.90
19359;DHT22;9815;52.334;20.890;2023-02-01T15:34:02;4.70;99.90
19359;DHT22;9815;52.334;20.890;2023-02-01T15:36:32;4.70;99.90
19359;DHT22;9815;52.334;20.890;2023-02-01T15:39:19;4.70;99.90
19359;DHT22;9815;52.334;20.890;2023-02-01T15:41:51;4.70;99.90
19359;DHT22;9815;52.334;20.890;2023-02-01T15:44:33;4.70;99.90
19359;DHT22;9815;52.334;20.890;2023-02-01T15:47:08;4.70;99.90
19359;DHT22;9815;52.334;20.890;2023-02-01T15:49:41;4.70;99.90
19359;DHT22;9815;52.334;20.890;2023-02-01T15:52:22;4.60;99.90
19359;DHT22;9815;52.334;20.890;2023-02-01T15:54:53;4.60;99.90
19359;DHT22;9815;52.334;20.890;2023-02-01T15:57:26;4.60;99.90
19359;DHT22;9815;52.334;20.890;2023-02-01T15:59:59;4.60;99.90
19359;DHT22;9815;52.334;20.890;2023-02-01T16:02:42;4.60;99.90
19359;DHT22;9815;52.334;20.890;2023-02-01T16:05:29;4.60;99.90
19359;DHT22;9815;52.334;20.890;2023-02-01T16:08:04;4.50;99.90
19359;DHT22;9815;52.334;20.890;2023-02-01T16:10:39;4.50;99.90
19359;DHT22;9815;52.334;20.890;2023-02-01T16:13:08;4.50;99.90
19359;DHT22;9815;52.334;20.890;2023-02-01T16:15:36;4.50;99.90
19359;DHT22;9815;52.334;20.890;2023-02-01T16:18:04;4.50;99.90
19359;DHT22;9815;52.334;20.890;2023-02-01T16:20:34;4.50;99.90
19359;DHT22;9815;52.334;20.890;2023-02-01T16:23:04;4.40;99.90
19359;DHT22;9815;52.334;20.890;2023-02-01T16:25:33;4.40;99.90
19359;DHT22;9815;52.334;20.890;2023-02-01T16:28:01;4.40;99.90
19359;DHT22;9815;52.334;20.890;2023-02-01T16:30:30;4.40;99.90
19359;DHT22;9815;52.334;20.890;2023-02-01T16:33:00;4.40;99.90
19359;DHT22;9815;52.334;20.890;2023-02-01T16:35:33;4.40;99.90
19359;DHT22;9815;52.334;20.890;2023-02-01T16:38:05;4.40;99.90
19359;DHT22;9815;52.334;20.890;2023-02-01T16:40:35;4.40;99.90
19359;DHT22;9815;52.334;20.890;2023-02-01T16:43:11;4.40;99.90
19359;DHT22;9815;52.334;20.890;2023-02-01T16:45:39;4.30;99.90